Time;durP1;ratioP1;P1;durP2;ratioP2;P2;SDS_P1;SDS_P2;PMS_P1;PMS_P2;Temp;Humidity;BMP_temperature;BMP_pressure;BME280_temperature;BME280_humidity;BME280_pressure;Samples;Min_cycle;Max_cycle;Signal;HPM_P1;HPM_P2
2024/01/08 00:02:56;;;;;;;13.45;3.97;;;;;;;-2.68;100.00;102309.47;5964196;28;20030;-75
2024/01/08 00:06:00;;;;;;;7.13;3.05;;;;;;;-2.63;100.00;102306.81;5982319;28;20027;-74
2024/01/08 00:08:57;;;;;;;8.50;4.03;;;;;;;-2.73;100.00;102294.84;5962904;28;20652;-75
2024/01/08 00:11:53;;;;;;;9.97;3.77;;;;;;;-2.72;100.00;102302.63;5982380;28;20031;-74
2024/01/08 00:14:51;;;;;;;12.93;4.90;;;;;;;-2.77;100.00;102313.97;5977617;28;20278;-74
2024/01/08 00:17:46;;;;;;;7.15;3.15;;;;;;;-2.77;100.00;102320.00;5978840;28;20278;-75
2024/01/08 00:20:42;;;;;;;7.83;3.03;;;;;;;-2.72;100.00;102320.81;5999626;28;20026;-74
2024/01/08 00:23:37;;;;;;;7.47;3.17;;;;;;;-2.72;100.00;102325.13;5975135;28;20031;-74
2024/01/08 00:26:33;;;;;;;9.37;3.60;;;;;;;-2.65;100.00;102318.97;5960158;28;20117;-76
2024/01/08 00:29:28;;;;;;;7.53;2.88;;;;;;;-2.73;100.00;102326.88;5972972;28;20035;-73
2024/01/08 00:32:23;;;;;;;9.63;3.80;;;;;;;-2.75;100.00;102310.47;5963558;28;20055;-73
2024/01/08 00:35:19;;;;;;;10.00;3.75;;;;;;;-2.72;100.00;102327.72;5985793;28;20073;-73
2024/01/08 00:38:14;;;;;;;6.90;2.60;;;;;;;-2.73;100.00;102313.03;5978155;28;20106;-75
2024/01/08 00:41:09;;;;;;;8.00;3.30;;;;;;;-2.82;100.00;102321.78;5979994;28;20039;-73
2024/01/08 00:44:05;;;;;;;8.68;3.65;;;;;;;-2.74;100.00;102327.72;5977379;28;20126;-74
2024/01/08 00:47:00;;;;;;;6.97;3.27;;;;;;;-2.66;100.00;102323.28;5975415;28;20472;-73
2024/01/08 00:49:56;;;;;;;5.90;3.00;;;;;;;-2.76;100.00;102316.53;5979810;28;20538;-74
2024/01/08 00:52:51;;;;;;;8.05;3.63;;;;;;;-2.67;100.00;102324.19;5958562;28;20116;-74
2024/01/08 00:55:46;;;;;;;7.70;2.80;;;;;;;-2.71;100.00;102325.09;5978727;28;20399;-75
2024/01/08 00:58:43;;;;;;;9.07;3.33;;;;;;;-2.65;100.00;102321.56;5983934;28;20109;-75
2024/01/08 01:01:38;;;;;;;12.45;3.78;;;;;;;-2.73;100.00;102321.66;5963648;28;20509;-74
2024/01/08 01:04:34;;;;;;;11.27;4.23;;;;;;;-2.66;100.00;102338.84;5975701;28;20030;-73
2024/01/08 01:07:31;;;;;;;7.38;2.80;;;;;;;-2.62;100.00;102329.28;5976214;28;20279;-73
2024/01/08 01:10:26;;;;;;;6.65;3.08;;;;;;;-2.70;100.00;102315.56;5989529;28;20035;-73
2024/01/08 01:13:21;;;;;;;6.40;3.30;;;;;;;-2.70;100.00;102321.63;5988456;28;20043;-76
2024/01/08 01:16:16;;;;;;;8.47;2.37;;;;;;;-2.61;100.00;102342.25;5982086;28;20050;-75
2024/01/08 01:19:12;;;;;;;7.07;3.20;;;;;;;-2.64;100.00;102337.13;6002055;28;20043;-75
2024/01/08 01:22:07;;;;;;;6.77;2.77;;;;;;;-2.64;100.00;102341.44;5989632;28;20513;-75
2024/01/08 01:25:12;;;;;;;8.23;2.70;;;;;;;-2.68;100.00;102340.63;5982579;28;20135;-75
2024/01/08 01:28:09;;;;;;;9.73;3.72;;;;;;;-2.78;100.00;102328.69;5979153;28;20054;-74
2024/01/08 01:31:13;;;;;;;7.83;2.93;;;;;;;-2.63;100.00;102340.56;5983653;28;20039;-74
2024/01/08 01:34:16;;;;;;;5.43;2.28;;;;;;;-2.67;100.00;102351.88;5983369;28;20035;-73
2024/01/08 01:37:29;;;;;;;6.97;2.78;;;;;;;-2.66;100.00;102348.38;5966614;28;20031;-73
2024/01/08 01:40:32;;;;;;;6.57;2.53;;;;;;;-2.71;100.00;102335.47;5989955;28;20038;-72
2024/01/08 01:43:29;;;;;;;6.43;2.35;;;;;;;-2.67;100.00;102341.50;5981976;28;20035;-76
2024/01/08 01:46:45;;;;;;;6.15;2.13;;;;;;;-2.53;100.00;102360.31;5974671;28;20395;-75
2024/01/08 01:49:41;;;;;;;5.20;2.75;;;;;;;-2.59;100.00;102345.69;5974424;28;20027;-75
2024/01/08 01:52:36;;;;;;;6.97;2.60;;;;;;;-2.53;100.00;102357.72;5988995;28;20485;-75
2024/01/08 01:55:32;;;;;;;7.93;2.83;;;;;;;-2.56;100.00;102365.56;5997889;28;20282;-76
2024/01/08 01:58:27;;;;;;;9.13;2.60;;;;;;;-2.61;100.00;102352.63;5987615;28;20207;-74
2024/01/08 02:01:34;;;;;;;6.60;1.27;;;;;;;-2.59;100.00;102353.47;5987998;28;20127;-74
2024/01/08 02:04:37;;;;;;;4.68;1.83;;;;;;;-2.54;100.00;102348.22;5975604;28;20306;-74
2024/01/08 02:07:39;;;;;;;4.88;2.03;;;;;;;-2.44;100.00;102360.16;5958528;28;20122;-74
2024/01/08 02:10:42;;;;;;;4.53;2.00;;;;;;;-2.51;100.00;102356.81;5977140;28;20047;-74
2024/01/08 02:13:43;;;;;;;6.85;2.05;;;;;;;-2.69;100.00;102328.53;5959577;28;20730;-75
2024/01/08 02:16:39;;;;;;;7.85;1.98;;;;;;;-2.46;100.00;102373.19;5984438;28;20030;-75
2024/01/08 02:19:35;;;;;;;4.40;1.77;;;;;;;-2.52;100.00;102362.03;5978392;28;20439;-74
2024/01/08 02:22:30;;;;;;;5.33;1.70;;;;;;;-2.54;100.00;102353.41;5979550;28;20035;-75
2024/01/08 02:25:26;;;;;;;6.07;2.25;;;;;;;-2.51;100.00;102343.84;5998307;28;20295;-75
2024/01/08 02:28:30;;;;;;;4.43;1.77;;;;;;;-2.49;100.00;102342.06;5992591;28;20051;-75
2024/01/08 02:31:40;;;;;;;5.28;1.75;;;;;;;-2.67;100.00;102331.97;5960936;28;20047;-74
2024/01/08 02:34:42;;;;;;;5.55;1.88;;;;;;;-2.47;100.00;102353.28;5973017;28;20129;-75
2024/01/08 02:37:39;;;;;;;4.63;1.48;;;;;;;-2.49;100.00;102351.59;5981650;28;20118;-75
2024/01/08 02:41:01;;;;;;;8.13;1.90;;;;;;;-2.54;100.00;102351.69;5978874;28;20043;-75
2024/01/08 02:44:11;;;;;;;3.30;1.75;;;;;;;-2.55;100.00;102347.34;5984196;28;20298;-74
2024/01/08 02:47:08;;;;;;;5.18;1.63;;;;;;;-2.62;100.00;102361.31;5974277;28;20055;-75
2024/01/08 02:50:05;;;;;;;4.97;2.10;;;;;;;-2.51;100.00;102366.34;5979779;28;20036;-75
2024/01/08 02:53:00;;;;;;;4.10;1.83;;;;;;;-2.55;100.00;102369.84;5981479;28;20035;-74
2024/01/08 02:55:55;;;;;;;5.43;2.20;;;;;;;-2.54;100.00;102371.56;5985396;28;20038;-75
2024/01/08 02:58:51;;;;;;;5.50;2.70;;;;;;;-2.61;100.00;102363.00;5991308;28;20297;-74
2024/01/08 03:01:46;;;;;;;4.68;1.80;;;;;;;-2.51;100.00;102379.31;5988547;28;20046;-72
2024/01/08 03:04:41;;;;;;;5.10;2.03;;;;;;;-2.55;100.00;102383.69;5980205;28;20039;-73
2024/01/08 03:07:37;;;;;;;5.00;2.13;;;;;;;-2.52;100.00;102382.78;5993384;28;20030;-73
2024/01/08 03:10:35;;;;;;;3.20;2.00;;;;;;;-2.64;100.00;102373.47;5985972;28;20042;-74
2024/01/08 03:13:30;;;;;;;3.78;1.95;;;;;;;-2.59;100.00;102375.97;5980126;28;20035;-73
2024/01/08 03:16:25;;;;;;;6.73;2.57;;;;;;;-2.53;100.00;102384.53;5975011;28;20565;-73
2024/01/08 03:19:27;;;;;;;6.60;2.80;;;;;;;-2.65;100.00;102384.72;5988751;28;20035;-74
2024/01/08 03:22:24;;;;;;;5.95;1.63;;;;;;;-2.73;100.00;102371.00;5969604;28;20035;-73
2024/01/08 03:25:19;;;;;;;4.20;1.77;;;;;;;-2.64;100.00;102378.66;5970103;28;20054;-73
2024/01/08 03:28:14;;;;;;;6.00;2.27;;;;;;;-2.57;100.00;102389.78;5971225;28;20487;-75
2024/01/08 03:31:14;;;;;;;7.60;2.92;;;;;;;-2.55;100.00;102388.03;5979442;28;20055;-76
2024/01/08 03:34:09;;;;;;;3.55;1.77;;;;;;;-2.53;100.00;102392.31;5982021;28;20513;-74
2024/01/08 03:37:05;;;;;;;5.00;2.37;;;;;;;-2.65;100.00;102389.91;5990214;28;20043;-75
2024/01/08 03:40:02;;;;;;;4.40;1.80;;;;;;;-2.66;100.00;102403.75;5989957;28;20023;-75
2024/01/08 03:42:57;;;;;;;5.05;2.28;;;;;;;-2.73;100.00;102398.69;5988200;28;20545;-75
2024/01/08 03:45:53;;;;;;;3.38;1.38;;;;;;;-2.72;100.00;102405.59;5987472;28;20027;-75
2024/01/08 03:48:48;;;;;;;6.53;2.57;;;;;;;-2.67;100.00;102401.19;5991246;28;20027;-74
2024/01/08 03:51:44;;;;;;;4.28;1.70;;;;;;;-2.73;100.00;102409.91;5987552;28;20285;-75
2024/01/08 03:54:49;;;;;;;4.37;2.00;;;;;;;-2.76;100.00;102415.16;5991376;28;20039;-75
2024/01/08 03:57:44;;;;;;;3.60;1.85;;;;;;;-2.81;100.00;102414.34;5985446;28;20498;-75
2024/01/08 04:01:25;;;;;;;5.53;2.23;;;;;;;-2.96;100.00;102405.91;6003122;28;20052;-75
2024/01/08 04:04:22;;;;;;;3.45;1.17;;;;;;;-3.07;100.00;102414.66;5991756;28;20031;-74
2024/01/08 04:07:17;;;;;;;6.88;2.70;;;;;;;-3.21;100.00;102405.34;5980175;28;20426;-74
2024/01/08 04:10:13;;;;;;;5.40;2.20;;;;;;;-3.32;100.00;102407.19;5990325;28;20039;-74
2024/01/08 04:13:08;;;;;;;5.23;1.60;;;;;;;-3.33;100.00;102434.84;5971314;28;20039;-74
2024/01/08 04:16:04;;;;;;;7.83;1.93;;;;;;;-3.55;100.00;102422.97;5992084;28;20337;-74
2024/01/08 04:19:00;;;;;;;4.68;1.70;;;;;;;-3.52;100.00;102435.91;5973450;28;20266;-74
2024/01/08 04:21:57;;;;;;;5.20;2.22;;;;;;;-3.61;100.00;102442.03;5999973;28;20042;-74
2024/01/08 04:24:52;;;;;;;6.22;2.58;;;;;;;-3.76;100.00;102421.47;5984309;28;20035;-74
2024/01/08 04:27:48;;;;;;;6.17;2.57;;;;;;;-3.77;100.00;102443.03;5985498;28;20035;-74
2024/01/08 04:30:43;;;;;;;5.28;1.95;;;;;;;-3.81;100.00;102433.59;5991087;28;20031;-74
2024/01/08 04:33:39;;;;;;;6.23;2.07;;;;;;;-3.78;100.00;102458.63;6008483;28;20058;-75
2024/01/08 04:36:39;;;;;;;5.60;2.20;;;;;;;-3.84;100.00;102461.25;5979965;28;20395;-74
2024/01/08 04:39:35;;;;;;;7.25;2.78;;;;;;;-3.98;100.00;102456.19;5990052;28;20031;-74
2024/01/08 04:42:30;;;;;;;7.55;2.60;;;;;;;-4.00;100.00;102464.84;5987353;28;20035;-74
2024/01/08 04:45:26;;;;;;;11.80;2.63;;;;;;;-4.08;100.00;102464.91;5979851;28;20038;-75
2024/01/08 04:48:21;;;;;;;7.70;2.97;;;;;;;-4.12;100.00;102451.97;5981140;28;20357;-74
2024/01/08 04:51:23;;;;;;;5.67;2.13;;;;;;;-4.14;100.00;102464.94;5990232;28;20106;-74
2024/01/08 04:54:18;;;;;;;;;;;;;;;-4.10;100.00;102476.97;5964139;28;20039;-74
2024/01/08 04:57:13;;;;;;;7.17;2.67;;;;;;;-4.16;100.00;102471.84;5974382;28;19915;-74
2024/01/08 05:00:11;;;;;;;6.13;2.70;;;;;;;-4.18;100.00;102468.41;5987157;28;20494;-73
2024/01/08 05:03:09;;;;;;;4.55;2.00;;;;;;;-4.22;100.00;102477.06;5986785;28;20118;-75
2024/01/08 05:06:05;;;;;;;6.30;2.55;;;;;;;-4.28;100.00;102483.13;5987015;28;20063;-73
2024/01/08 05:09:02;;;;;;;5.53;1.98;;;;;;;-4.32;100.00;102484.00;5980620;28;20067;-74
2024/01/08 05:11:57;;;;;;;7.78;2.90;;;;;;;-4.35;100.00;102489.19;5982807;28;20110;-73
2024/01/08 05:14:53;;;;;;;5.18;2.05;;;;;;;-4.40;100.00;102495.28;5984139;28;20061;-74
2024/01/08 05:17:48;;;;;;;10.93;3.00;;;;;;;-4.51;100.00;102489.31;5981165;28;20043;-73
2024/01/08 05:20:43;;;;;;;6.90;2.47;;;;;;;-4.61;100.00;102497.97;5978645;28;20039;-75
2024/01/08 05:23:38;;;;;;;5.43;2.60;;;;;;;-4.59;100.00;102494.50;5984297;28;20073;-73
2024/01/08 05:26:34;;;;;;;8.63;3.27;;;;;;;-4.68;100.00;102501.47;5978985;28;20045;-73
2024/01/08 05:29:29;;;;;;;8.68;2.95;;;;;;;-4.84;100.00;102500.66;5975717;28;20046;-73
2024/01/08 05:32:25;;;;;;;8.10;2.87;;;;;;;-4.90;100.00;102498.09;5986687;28;20059;-73
2024/01/08 05:35:20;;;;;;;6.17;2.67;;;;;;;-4.95;100.00;102492.94;6008977;28;20046;-73
2024/01/08 05:38:15;;;;;;;4.37;1.97;;;;;;;-4.83;100.00;102515.28;5986189;28;20041;-74
2024/01/08 05:41:11;;;;;;;8.97;3.30;;;;;;;-4.93;100.00;102511.03;5994256;28;20402;-73
2024/01/08 05:44:06;;;;;;;7.63;2.97;;;;;;;-4.92;100.00;102512.75;5988888;28;20542;-73
2024/01/08 05:47:01;;;;;;;7.03;2.47;;;;;;;-4.88;100.00;102515.31;5984704;28;20034;-73
2024/01/08 05:49:56;;;;;;;5.80;2.50;;;;;;;-5.01;100.00;102534.31;5992534;28;20038;-73
2024/01/08 05:52:52;;;;;;;3.87;1.70;;;;;;;-5.02;100.00;102519.66;5993859;28;20031;-73
2024/01/08 05:55:48;;;;;;;4.88;2.08;;;;;;;-5.09;100.00;102525.72;5986268;28;20035;-73
2024/01/08 05:58:43;;;;;;;7.20;1.63;;;;;;;-5.14;100.00;102522.28;5986990;28;20102;-73
2024/01/08 06:01:39;;;;;;;1.87;1.07;;;;;;;-5.23;100.00;102530.03;5991748;28;20032;-74
2024/01/08 06:04:35;;;;;;;4.07;1.90;;;;;;;-5.37;99.66;102533.50;5988283;28;20114;-73
2024/01/08 06:07:30;;;;;;;6.20;2.10;;;;;;;-5.37;98.98;102543.84;5991220;28;20038;-74
2024/01/08 06:10:25;;;;;;;4.67;1.77;;;;;;;-5.47;97.65;102543.00;5979583;28;20031;-74
2024/01/08 06:13:21;;;;;;;4.37;1.77;;;;;;;-5.53;95.45;102533.50;5987297;28;20042;-74
2024/01/08 06:16:16;;;;;;;3.15;1.52;;;;;;;-5.60;94.23;102530.94;5982959;28;20042;-74
2024/01/08 06:19:11;;;;;;;5.83;1.70;;;;;;;-5.64;93.59;102549.88;5994718;28;20023;-73
2024/01/08 06:22:08;;;;;;;4.73;1.70;;;;;;;-5.63;98.15;102569.69;5987844;28;20275;-73
2024/01/08 06:25:04;;;;;;;4.57;1.63;;;;;;;-5.56;100.00;102561.06;5992048;28;20027;-73
2024/01/08 06:27:59;;;;;;;5.90;1.85;;;;;;;-5.75;100.00;102569.66;5990804;28;20519;-73
2024/01/08 06:30:56;;;;;;;3.20;1.57;;;;;;;-5.67;100.00;102576.56;5989295;28;20134;-73
2024/01/08 06:33:52;;;;;;;3.85;1.80;;;;;;;-5.71;100.00;102568.81;5985481;28;20473;-72
2024/01/08 06:36:47;;;;;;;4.07;2.00;;;;;;;-5.70;100.00;102571.38;5985453;28;20037;-72
2024/01/08 06:39:42;;;;;;;5.40;1.67;;;;;;;-5.96;100.00;102565.34;5990009;28;20035;-72
2024/01/08 06:42:38;;;;;;;8.27;2.67;;;;;;;-5.83;100.00;102586.84;5977847;28;20035;-72
2024/01/08 06:45:33;;;;;;;7.50;2.20;;;;;;;-5.92;100.00;102584.31;5982803;28;20066;-74
2024/01/08 06:48:29;;;;;;;4.07;2.10;;;;;;;-6.01;100.00;102579.97;5988759;28;20040;-74
2024/01/08 06:51:24;;;;;;;4.43;1.60;;;;;;;-5.92;100.00;102584.31;5982410;28;20031;-74
2024/01/08 06:54:19;;;;;;;6.13;2.30;;;;;;;-5.86;100.00;102599.78;5972545;28;20477;-73
2024/01/08 06:57:14;;;;;;;4.97;2.60;;;;;;;-6.01;100.00;102589.44;5983568;28;20325;-74
2024/01/08 07:00:11;;;;;;;2.87;1.67;;;;;;;-5.96;100.00;102604.09;5986789;28;20089;-74
2024/01/08 07:03:06;;;;;;;9.15;2.03;;;;;;;-5.98;100.00;102599.78;5984211;28;20044;-74
2024/01/08 07:06:02;;;;;;;5.27;2.10;;;;;;;-6.03;100.00;102609.22;5971738;28;20463;-73
2024/01/08 07:08:57;;;;;;;7.78;2.75;;;;;;;-6.04;100.00;102629.00;5971898;28;20062;-73
2024/01/08 07:11:52;;;;;;;3.77;1.70;;;;;;;-5.96;100.00;102639.34;5990321;28;20054;-73
2024/01/08 07:14:48;;;;;;;4.97;2.10;;;;;;;-6.12;100.00;102639.31;5992119;28;20031;-72
2024/01/08 07:17:43;;;;;;;6.17;2.13;;;;;;;-6.11;100.00;102630.69;5985799;28;20400;-72
2024/01/08 07:20:39;;;;;;;4.50;1.70;;;;;;;-6.20;100.00;102629.81;5994285;28;20078;-72
2024/01/08 07:23:35;;;;;;;4.20;2.03;;;;;;;-6.13;100.00;102631.53;5985210;28;20286;-72
2024/01/08 07:26:31;;;;;;;6.25;2.00;;;;;;;-6.17;100.00;102648.72;5973973;28;20118;-72
2024/01/08 07:29:26;;;;;;;9.73;3.53;;;;;;;-6.20;100.00;102641.00;5974970;28;20077;-72
2024/01/08 07:32:21;;;;;;;5.30;1.87;;;;;;;-6.17;100.00;102648.72;5977954;28;20504;-72
2024/01/08 07:35:17;;;;;;;6.23;2.63;;;;;;;-6.24;96.49;102647.00;5983443;28;20283;-72
2024/01/08 07:38:12;;;;;;;4.33;1.90;;;;;;;-6.40;96.05;102621.97;5978464;28;20106;-72
2024/01/08 07:41:07;;;;;;;6.10;3.07;;;;;;;-6.23;99.31;102665.94;5975972;28;20279;-72
2024/01/08 07:44:03;;;;;;;5.07;2.60;;;;;;;-6.27;98.63;102653.84;5975962;28;20135;-72
2024/01/08 07:46:58;;;;;;;5.00;2.13;;;;;;;-6.25;97.96;102665.06;5978298;28;20039;-72
2024/01/08 07:49:54;;;;;;;5.70;2.43;;;;;;;-6.27;96.92;102662.47;5976634;28;20443;-72
2024/01/08 07:52:49;;;;;;;7.53;3.08;;;;;;;-6.31;95.96;102665.03;5982652;28;20042;-72
2024/01/08 07:55:44;;;;;;;9.40;3.00;;;;;;;-6.25;100.00;102672.81;5978624;28;20461;-73
2024/01/08 07:58:40;;;;;;;5.77;2.33;;;;;;;-6.36;100.00;102664.97;5980642;28;20034;-72
2024/01/08 08:01:35;;;;;;;7.13;2.67;;;;;;;-6.40;100.00;102668.41;5977632;28;20038;-72
2024/01/08 08:04:30;;;;;;;7.77;2.50;;;;;;;-6.34;100.00;102677.91;5975109;28;20027;-73
2024/01/08 08:07:25;;;;;;;5.20;2.50;;;;;;;-6.36;100.00;102689.94;5971149;28;20032;-73
2024/01/08 08:10:21;;;;;;;11.87;3.23;;;;;;;-6.41;100.00;102689.91;5975176;28;20419;-74
2024/01/08 08:13:16;;;;;;;10.10;4.10;;;;;;;-6.31;100.00;102698.56;5976732;28;20062;-73
2024/01/08 08:16:11;;;;;;;8.03;3.10;;;;;;;-6.37;100.00;102689.06;5975568;28;20328;-73
2024/01/08 08:19:07;;;;;;;7.97;3.10;;;;;;;-6.22;100.00;102689.16;5990378;28;20404;-74
2024/01/08 08:22:02;;;;;;;4.72;2.08;;;;;;;-6.19;100.00;102703.78;5975208;28;20367;-74
2024/01/08 08:24:58;;;;;;;6.83;3.07;;;;;;;-6.29;100.00;102702.88;5972795;28;20034;-74
2024/01/08 08:27:53;;;;;;;7.77;2.73;;;;;;;-6.25;100.00;102699.44;5979429;28;20814;-73
2024/01/08 08:30:48;;;;;;;7.03;3.27;;;;;;;-6.21;100.00;102716.69;5993673;28;20042;-73
2024/01/08 08:33:44;;;;;;;8.87;3.60;;;;;;;-6.17;100.00;102718.41;5970982;28;20275;-73
2024/01/08 08:36:41;;;;;;;9.97;3.57;;;;;;;-6.07;100.00;102720.22;5975210;28;20031;-74
2024/01/08 08:39:37;;;;;;;7.38;2.88;;;;;;;-5.86;100.00;102713.41;5975602;28;20588;-73
2024/01/08 08:42:32;;;;;;;10.52;4.35;;;;;;;-5.59;100.00;102723.81;5981106;28;20043;-75
2024/01/08 08:45:31;;;;;;;9.65;2.28;;;;;;;-5.41;97.99;102723.91;5977231;28;20488;-75
2024/01/08 08:48:28;;;;;;;6.50;2.28;;;;;;;-5.35;96.94;102712.72;5989935;28;20450;-75
2024/01/08 08:51:25;;;;;;;8.32;3.20;;;;;;;-5.32;93.58;102736.81;5990982;28;20042;-76
2024/01/08 08:54:20;;;;;;;8.85;2.90;;;;;;;-5.29;91.39;102728.22;5979876;28;20037;-75
2024/01/08 08:57:21;;;;;;;8.63;3.40;;;;;;;-5.10;90.40;102712.75;5975978;28;20027;-78
2024/01/08 09:03:53;;;;;;;11.70;3.08;;;;;;;-4.96;80.54;102749.81;5958715;28;20452;-76
2024/01/08 09:11:28;;;;;;;;;;;;;;;;;;;;;
2024/01/08 10:01:45;;;;;;;3.38;1.13;;;;;;;-4.35;71.97;102792.09;7263070;23;20010;31
2024/01/08 10:05:56;;;;;;;3.58;1.70;;;;;;;-4.22;73.03;102792.97;5918753;29;20045;-76
2024/01/08 10:08:52;;;;;;;4.35;1.73;;;;;;;-4.43;72.19;102780.03;5901318;29;20057;-73
2024/01/08 10:11:47;;;;;;;4.90;1.97;;;;;;;-4.16;73.63;102789.50;5904623;29;20508;-75
2024/01/08 10:14:42;;;;;;;3.72;1.30;;;;;;;-4.26;71.24;102776.56;5903202;29;20437;-74
2024/01/08 10:17:38;;;;;;;4.37;1.90;;;;;;;-4.38;70.07;102791.25;5903115;29;20037;-74
2024/01/08 10:20:34;;;;;;;7.60;2.65;;;;;;;-4.14;72.22;102795.53;5902997;29;20292;-74
2024/01/08 10:23:29;;;;;;;5.55;1.90;;;;;;;-4.03;71.21;102796.38;5900690;29;20049;-72
2024/01/08 10:26:26;;;;;;;3.67;1.37;;;;;;;-4.13;70.49;102786.91;5900609;29;20052;-72
2024/01/08 10:29:21;;;;;;;4.25;1.60;;;;;;;-3.91;71.91;102794.63;5910632;29;20020;-72
2024/01/08 10:32:17;;;;;;;6.27;2.17;;;;;;;-3.77;71.39;102797.19;5908167;29;20373;-72
2024/01/08 10:35:13;;;;;;;5.95;2.25;;;;;;;-4.03;68.93;102778.25;5901685;29;20028;-72
2024/01/08 10:38:08;;;;;;;5.03;2.70;;;;;;;-4.10;70.46;102792.09;5903887;29;20025;-71
2024/01/08 10:41:04;;;;;;;4.80;1.60;;;;;;;-4.03;69.38;102791.22;5901818;29;20039;-72
2024/01/08 10:44:00;;;;;;;4.85;2.38;;;;;;;-4.18;69.30;102794.66;5901754;29;20032;-71
2024/01/08 10:46:59;;;;;;;6.07;2.80;;;;;;;-4.00;69.65;102799.84;5899450;29;20048;-72
2024/01/08 10:50:00;;;;;;;10.20;3.28;;;;;;;-3.94;70.77;102801.56;5902694;29;20361;-73
2024/01/08 10:52:56;;;;;;;6.15;2.10;;;;;;;-3.77;70.25;102794.59;5896779;29;20028;-72
2024/01/08 10:55:52;;;;;;;6.07;2.33;;;;;;;-3.83;68.76;102805.00;5900218;29;20040;-71
2024/01/08 10:58:55;;;;;;;15.65;2.33;;;;;;;-3.74;68.50;102787.69;5904928;29;20024;-72
2024/01/08 11:01:51;;;;;;;6.00;2.42;;;;;;;-3.66;68.23;102791.09;5908726;29;20033;-75
2024/01/08 11:04:47;;;;;;;9.50;2.53;;;;;;;-3.70;69.55;102779.03;5907364;29;20033;-72
2024/01/08 11:07:50;;;;;;;5.35;1.90;;;;;;;-3.62;68.67;102789.38;5911749;29;20064;-75
2024/01/08 11:11:04;;;;;;;5.47;1.92;;;;;;;-3.83;70.07;102795.47;5905189;29;20044;-72
2024/01/08 11:14:03;;;;;;;7.85;1.48;;;;;;;-3.83;69.05;102792.88;5902438;29;20029;-73
2024/01/08 11:16:59;;;;;;;4.15;1.90;;;;;;;-3.90;69.94;102791.19;5910031;29;20445;-73
2024/01/08 11:19:57;;;;;;;7.03;2.55;;;;;;;-3.84;69.86;102798.94;5911079;29;20475;-74
2024/01/08 11:22:53;;;;;;;8.13;2.30;;;;;;;-3.80;72.53;102798.06;5910307;29;20036;-70
2024/01/08 11:25:49;;;;;;;4.20;1.80;;;;;;;-3.81;72.02;102806.72;5910055;29;20144;-74
2024/01/08 11:28:59;;;;;;;6.22;1.45;;;;;;;-3.86;73.24;102808.44;5908829;29;20025;-73
2024/01/08 11:32:17;;;;;;;6.20;2.20;;;;;;;-4.05;72.39;102803.31;5909342;29;20036;-73
2024/01/08 11:35:16;;;;;;;6.10;2.25;;;;;;;-4.14;72.56;102801.59;5908663;29;20183;-73
2024/01/08 11:38:26;;;;;;;6.68;2.50;;;;;;;-4.32;73.84;102784.31;5905234;29;20039;-71
2024/01/08 11:41:22;;;;;;;4.85;2.20;;;;;;;-4.25;74.50;102804.19;5902977;29;20044;-73
2024/01/08 11:44:17;;;;;;;8.30;1.80;;;;;;;-4.19;74.52;102802.47;5902107;29;20028;-73
2024/01/08 11:47:13;;;;;;;5.20;1.23;;;;;;;-4.18;76.63;102789.50;5909442;29;20092;-71
2024/01/08 11:50:08;;;;;;;7.03;3.10;;;;;;;-4.13;76.88;102786.91;5904470;29;20540;-71
2024/01/08 11:53:05;;;;;;;5.18;2.15;;;;;;;-4.09;78.05;102794.66;5903201;29;20292;-72
2024/01/08 11:56:01;;;;;;;4.28;1.58;;;;;;;-4.07;77.69;102803.28;5910230;29;20487;-73
2024/01/08 11:58:56;;;;;;;6.17;2.23;;;;;;;-4.16;77.10;102790.38;5906303;29;20025;-74
2024/01/08 12:01:52;;;;;;;5.77;2.53;;;;;;;-4.16;75.51;102792.97;5902630;29;20516;-75
2024/01/08 12:04:55;;;;;;;4.20;1.52;;;;;;;-4.12;76.23;102792.09;5906627;29;20116;-72
2024/01/08 12:07:51;;;;;;;5.10;1.95;;;;;;;-4.11;77.62;102796.41;5900526;29;20071;-71
2024/01/08 12:10:53;;;;;;;6.90;2.55;;;;;;;-4.10;77.62;102787.75;5902532;29;20032;-73
2024/01/08 12:13:48;;;;;;;4.82;1.88;;;;;;;-3.99;78.88;102798.09;5910314;29;20031;-72
2024/01/08 12:16:44;;;;;;;5.37;2.17;;;;;;;-3.91;79.70;102805.00;5910255;29;20029;-73
2024/01/08 12:19:43;;;;;;;5.70;2.13;;;;;;;-3.92;78.80;102808.47;5903426;29;20485;-71
2024/01/08 12:22:39;;;;;;;6.32;3.08;;;;;;;-3.93;80.28;102796.38;5900127;29;20063;-73
2024/01/08 12:25:34;;;;;;;5.75;1.63;;;;;;;-4.09;78.25;102784.31;5903207;29;20406;-70
2024/01/08 12:28:30;;;;;;;6.37;2.73;;;;;;;-4.03;81.96;102773.09;5901445;29;20437;-71
2024/01/08 12:31:32;;;;;;;8.73;3.20;;;;;;;-3.82;85.19;102792.03;5904834;29;20305;-75
2024/01/08 12:34:29;;;;;;;6.43;2.75;;;;;;;-3.98;80.52;102789.47;5896434;29;20056;-75
2024/01/08 12:37:32;;;;;;;7.85;2.20;;;;;;;-3.91;79.84;102797.22;5905806;29;20115;-71
2024/01/08 12:40:28;;;;;;;9.70;2.63;;;;;;;-3.90;77.78;102801.53;5910894;29;20028;-73
2024/01/08 12:43:23;;;;;;;6.90;2.55;;;;;;;-3.95;77.46;102790.34;5910834;29;20064;-72
2024/01/08 12:46:18;;;;;;;8.30;3.40;;;;;;;-3.87;78.29;102796.38;5908589;29;20084;-73
2024/01/08 12:49:14;;;;;;;5.60;1.77;;;;;;;-3.86;76.04;102805.84;5901534;29;20025;-74
2024/01/08 12:52:11;;;;;;;5.07;1.85;;;;;;;-3.81;76.60;102801.53;5902079;29;20254;-71
2024/01/08 12:55:07;;;;;;;7.03;2.45;;;;;;;-3.81;77.66;102806.72;5903258;29;20472;-74
2024/01/08 12:58:03;;;;;;;4.43;1.92;;;;;;;-3.81;77.90;102811.91;5906460;29;20040;-71
2024/01/08 13:00:58;;;;;;;6.38;3.08;;;;;;;-3.75;80.14;102798.06;5904568;29;20079;-71
2024/01/08 13:03:54;;;;;;;7.17;2.50;;;;;;;-3.78;74.94;102798.91;5909433;29;20033;-74
2024/01/08 13:06:49;;;;;;;6.33;2.20;;;;;;;-3.77;73.60;102802.38;5906972;29;20036;-72
2024/01/08 13:09:44;;;;;;;8.53;2.90;;;;;;;-3.76;73.65;102796.34;5907714;29;20059;-73
2024/01/08 13:12:40;;;;;;;5.97;2.28;;;;;;;-3.71;72.66;102808.41;5904779;29;20273;-73
2024/01/08 13:15:35;;;;;;;4.57;1.67;;;;;;;-3.73;72.85;102807.56;5908747;29;20043;-76
2024/01/08 13:18:30;;;;;;;4.60;1.80;;;;;;;-3.74;72.65;102802.38;5909649;29;20029;-73
2024/01/08 13:21:26;;;;;;;4.30;2.30;;;;;;;-3.74;71.98;102808.41;5897967;29;20040;-74
2024/01/08 13:24:22;;;;;;;6.55;1.60;;;;;;;-3.79;72.13;102807.56;5904348;29;20040;-71
2024/01/08 13:27:17;;;;;;;13.27;2.53;;;;;;;-3.82;73.42;102804.97;5899358;29;20032;-70
2024/01/08 13:30:12;;;;;;;10.20;2.93;;;;;;;-3.90;73.36;102793.78;5906863;29;20593;-71
2024/01/08 13:33:09;;;;;;;4.57;1.77;;;;;;;-3.85;72.70;102817.06;5901139;29;20020;-72
2024/01/08 13:36:04;;;;;;;6.60;2.58;;;;;;;-3.88;70.34;102807.56;5899724;29;20041;-72
2024/01/08 13:39:00;;;;;;;8.20;2.40;;;;;;;-3.88;68.87;102815.34;5905926;29;20396;-73
2024/01/08 13:41:55;;;;;;;4.45;1.48;;;;;;;-3.86;70.40;102813.63;5903670;29;20083;-73
2024/01/08 13:44:51;;;;;;;6.03;2.13;;;;;;;-3.89;69.30;102812.78;5907912;29;20033;-72
2024/01/08 13:47:50;;;;;;;4.90;1.50;;;;;;;-3.92;69.14;102810.19;5908021;29;20108;-72
2024/01/08 13:50:46;;;;;;;5.30;1.90;;;;;;;-3.88;70.04;102817.94;5895244;29;20036;-73
2024/01/08 13:53:41;;;;;;;7.33;2.03;;;;;;;-3.96;69.38;102811.03;5899632;29;20452;-71
2024/01/08 13:56:36;;;;;;;3.22;1.27;;;;;;;-3.97;68.83;102811.94;5905069;29;20321;-73
2024/01/08 13:59:32;;;;;;;3.90;1.33;;;;;;;-3.97;68.04;102814.53;5900418;29;20067;-70
2024/01/08 14:02:27;;;;;;;6.30;2.00;;;;;;;-3.84;66.45;102826.59;5900821;29;20116;-71
2024/01/08 14:05:23;;;;;;;9.57;2.50;;;;;;;-3.90;67.65;102822.28;5903252;29;20032;-72
2024/01/08 14:08:18;;;;;;;4.13;1.67;;;;;;;-3.87;68.63;102835.22;5898223;29;20129;-71
2024/01/08 14:11:13;;;;;;;2.63;1.20;;;;;;;-3.91;68.52;102828.31;5900004;29;20380;-71
2024/01/08 14:14:09;;;;;;;3.30;1.40;;;;;;;-3.86;67.04;102855.06;5907955;29;20176;-70
2024/01/08 14:17:04;;;;;;;4.87;1.87;;;;;;;-3.91;68.42;102842.97;5908045;29;20028;-72
2024/01/08 14:20:00;;;;;;;2.10;1.00;;;;;;;-3.87;65.48;102848.19;5903883;29;20040;-70
2024/01/08 14:22:56;;;;;;;12.33;2.70;;;;;;;-3.91;67.26;102861.13;5904796;29;20595;-71
2024/01/08 14:25:52;;;;;;;3.08;1.30;;;;;;;-3.94;65.43;102867.16;5908511;29;20299;-72
2024/01/08 14:28:47;;;;;;;8.18;2.90;;;;;;;-3.95;65.91;102860.28;5898741;29;20349;-73
2024/01/08 14:31:43;;;;;;;10.53;2.70;;;;;;;-3.99;64.53;102871.50;5907875;29;20099;-74
2024/01/08 14:34:38;;;;;;;4.97;2.00;;;;;;;-4.00;63.98;102868.91;5904674;29;20080;-74
2024/01/08 14:37:33;;;;;;;5.10;1.50;;;;;;;-3.98;63.48;102878.41;5904784;29;20093;-74